sensor_id;sensor_type;location;lat;lon;timestamp;P1;durP1;ratioP1;P2;durP2;ratioP2
66270;SDS011;53063;39.614;8.814;2022-07-01T00:02:22;4.43;;;1.20;;
66270;SDS011;53063;39.614;8.814;2022-07-01T00:04:50;13.70;;;1.63;;
66270;SDS011;53063;39.614;8.814;2022-07-01T00:07:34;8.82;;;1.40;;
66270;SDS011;53063;39.614;8.814;2022-07-01T00:10:00;3.80;;;1.58;;
66270;SDS011;53063;39.614;8.814;2022-07-01T00:12:26;3.55;;;1.10;;
66270;SDS011;53063;39.614;8.814;2022-07-01T00:14:52;1.70;;;1.20;;
66270;SDS011;53063;39.614;8.814;2022-07-01T00:17:18;6.05;;;1.42;;
66270;SDS011;53063;39.614;8.814;2022-07-01T00:19:44;7.95;;;1.98;;
66270;SDS011;53063;39.614;8.814;2022-07-01T00:22:10;5.70;;;1.75;;
66270;SDS011;53063;39.614;8.814;2022-07-01T00:24:36;11.88;;;1.83;;
66270;SDS011;53063;39.614;8.814;2022-07-01T00:27:02;4.28;;;1.30;;
66270;SDS011;53063;39.614;8.814;2022-07-01T00:29:29;4.38;;;1.17;;
66270;SDS011;53063;39.614;8.814;2022-07-01T00:31:55;5.60;;;1.42;;
66270;SDS011;53063;39.614;8.814;2022-07-01T00:34:21;7.97;;;2.17;;
66270;SDS011;53063;39.614;8.814;2022-07-01T00:36:46;4.57;;;1.45;;
66270;SDS011;53063;39.614;8.814;2022-07-01T00:39:12;5.60;;;1.50;;
66270;SDS011;53063;39.614;8.814;2022-07-01T00:41:38;5.43;;;1.40;;
66270;SDS011;53063;39.614;8.814;2022-07-01T00:44:04;3.78;;;1.08;;
66270;SDS011;53063;39.614;8.814;2022-07-01T00:46:30;3.08;;;1.40;;
66270;SDS011;53063;39.614;8.814;2022-07-01T00:48:58;4.70;;;1.42;;
66270;SDS011;53063;39.614;8.814;2022-07-01T00:51:25;8.32;;;1.52;;
66270;SDS011;53063;39.614;8.814;2022-07-01T00:53:51;3.63;;;1.40;;
66270;SDS011;53063;39.614;8.814;2022-07-01T00:56:18;4.30;;;1.40;;
66270;SDS011;53063;39.614;8.814;2022-07-01T00:58:44;5.43;;;1.23;;
66270;SDS011;53063;39.614;8.814;2022-07-01T01:01:11;6.38;;;1.45;;
66270;SDS011;53063;39.614;8.814;2022-07-01T01:03:37;4.20;;;1.40;;
66270;SDS011;53063;39.614;8.814;2022-07-01T01:06:03;8.88;;;1.60;;
66270;SDS011;53063;39.614;8.814;2022-07-01T01:08:29;7.05;;;1.40;;
66270;SDS011;53063;39.614;8.814;2022-07-01T01:10:55;4.65;;;1.42;;
66270;SDS011;53063;39.614;8.814;2022-07-01T01:13:21;8.50;;;1.58;;
66270;SDS011;53063;39.614;8.814;2022-07-01T01:15:47;3.70;;;1.40;;
66270;SDS011;53063;39.614;8.814;2022-07-01T01:18:13;5.15;;;1.63;;
66270;SDS011;53063;39.614;8.814;2022-07-01T01:20:39;3.70;;;1.23;;
66270;SDS011;53063;39.614;8.814;2022-07-01T01:23:05;5.68;;;1.50;;
66270;SDS011;53063;39.614;8.814;2022-07-01T01:25:32;5.65;;;1.27;;
66270;SDS011;53063;39.614;8.814;2022-07-01T01:27:59;4.47;;;1.52;;
66270;SDS011;53063;39.614;8.814;2022-07-01T01:30:26;8.75;;;2.30;;
66270;SDS011;53063;39.614;8.814;2022-07-01T01:32:52;7.00;;;1.38;;
66270;SDS011;53063;39.614;8.814;2022-07-01T01:35:18;7.13;;;1.75;;
66270;SDS011;53063;39.614;8.814;2022-07-01T01:37:45;5.53;;;1.60;;
66270;SDS011;53063;39.614;8.814;2022-07-01T01:40:12;6.65;;;1.50;;
66270;SDS011;53063;39.614;8.814;2022-07-01T01:42:41;6.15;;;1.55;;
66270;SDS011;53063;39.614;8.814;2022-07-01T01:45:08;7.63;;;1.38;;
66270;SDS011;53063;39.614;8.814;2022-07-01T01:47:34;1.65;;;1.10;;
66270;SDS011;53063;39.614;8.814;2022-07-01T01:50:00;5.13;;;1.85;;
66270;SDS011;53063;39.614;8.814;2022-07-01T01:52:26;5.07;;;1.25;;
66270;SDS011;53063;39.614;8.814;2022-07-01T01:54:52;3.97;;;1.50;;
66270;SDS011;53063;39.614;8.814;2022-07-01T01:57:17;5.07;;;1.60;;
66270;SDS011;53063;39.614;8.814;2022-07-01T01:59:43;6.72;;;1.67;;
66270;SDS011;53063;39.614;8.814;2022-07-01T02:02:09;3.20;;;1.38;;
66270;SDS011;53063;39.614;8.814;2022-07-01T02:04:35;8.52;;;1.60;;
66270;SDS011;53063;39.614;8.814;2022-07-01T02:07:01;5.88;;;1.77;;
66270;SDS011;53063;39.614;8.814;2022-07-01T02:09:27;6.60;;;1.45;;
66270;SDS011;53063;39.614;8.814;2022-07-01T02:11:54;5.00;;;1.30;;
66270;SDS011;53063;39.614;8.814;2022-07-01T02:14:20;6.43;;;1.50;;
66270;SDS011;53063;39.614;8.814;2022-07-01T02:16:46;6.78;;;1.27;;
66270;SDS011;53063;39.614;8.814;2022-07-01T02:19:12;3.90;;;1.73;;
66270;SDS011;53063;39.614;8.814;2022-07-01T02:21:38;5.80;;;1.92;;
66270;SDS011;53063;39.614;8.814;2022-07-01T02:24:04;4.57;;;1.13;;
66270;SDS011;53063;39.614;8.814;2022-07-01T02:26:30;5.22;;;1.52;;
66270;SDS011;53063;39.614;8.814;2022-07-01T02:28:56;9.85;;;1.75;;
66270;SDS011;53063;39.614;8.814;2022-07-01T02:31:22;8.63;;;1.58;;
66270;SDS011;53063;39.614;8.814;2022-07-01T02:33:48;10.63;;;1.70;;
66270;SDS011;53063;39.614;8.814;2022-07-01T02:36:14;14.40;;;2.97;;
66270;SDS011;53063;39.614;8.814;2022-07-01T02:38:40;4.20;;;1.33;;
66270;SDS011;53063;39.614;8.814;2022-07-01T02:41:05;5.55;;;1.35;;
66270;SDS011;53063;39.614;8.814;2022-07-01T02:43:31;6.28;;;1.20;;
66270;SDS011;53063;39.614;8.814;2022-07-01T02:45:58;7.28;;;1.40;;
66270;SDS011;53063;39.614;8.814;2022-07-01T02:48:23;5.18;;;1.20;;
66270;SDS011;53063;39.614;8.814;2022-07-01T02:50:49;6.65;;;1.65;;
66270;SDS011;53063;39.614;8.814;2022-07-01T02:53:15;15.18;;;3.78;;
66270;SDS011;53063;39.614;8.814;2022-07-01T02:55:41;4.35;;;1.73;;
66270;SDS011;53063;39.614;8.814;2022-07-01T02:58:07;4.20;;;1.52;;
66270;SDS011;53063;39.614;8.814;2022-07-01T03:00:33;5.80;;;1.30;;
66270;SDS011;53063;39.614;8.814;2022-07-01T03:02:59;5.88;;;1.40;;
66270;SDS011;53063;39.614;8.814;2022-07-01T03:05:25;7.10;;;2.03;;
66270;SDS011;53063;39.614;8.814;2022-07-01T03:07:51;9.45;;;1.80;;
66270;SDS011;53063;39.614;8.814;2022-07-01T03:10:17;6.18;;;1.88;;
66270;SDS011;53063;39.614;8.814;2022-07-01T03:12:43;3.90;;;1.23;;
66270;SDS011;53063;39.614;8.814;2022-07-01T03:15:13;4.88;;;1.45;;
66270;SDS011;53063;39.614;8.814;2022-07-01T03:17:40;7.80;;;1.55;;
66270;SDS011;53063;39.614;8.814;2022-07-01T03:20:09;3.15;;;1.20;;
66270;SDS011;53063;39.614;8.814;2022-07-01T03:22:37;5.63;;;1.30;;
66270;SDS011;53063;39.614;8.814;2022-07-01T03:25:03;11.68;;;1.85;;
66270;SDS011;53063;39.614;8.814;2022-07-01T03:27:31;5.35;;;1.60;;
66270;SDS011;53063;39.614;8.814;2022-07-01T03:29:57;7.75;;;1.98;;
66270;SDS011;53063;39.614;8.814;2022-07-01T03:32:24;3.13;;;1.40;;
66270;SDS011;53063;39.614;8.814;2022-07-01T03:34:50;8.48;;;1.35;;
66270;SDS011;53063;39.614;8.814;2022-07-01T03:37:18;4.20;;;1.30;;
66270;SDS011;53063;39.614;8.814;2022-07-01T03:39:45;5.78;;;1.50;;
66270;SDS011;53063;39.614;8.814;2022-07-01T03:42:12;3.72;;;1.30;;
66270;SDS011;53063;39.614;8.814;2022-07-01T03:44:38;5.70;;;1.65;;
66270;SDS011;53063;39.614;8.814;2022-07-01T03:47:04;8.30;;;1.67;;
66270;SDS011;53063;39.614;8.814;2022-07-01T03:49:32;4.25;;;1.42;;
66270;SDS011;53063;39.614;8.814;2022-07-01T03:51:59;4.05;;;1.60;;
66270;SDS011;53063;39.614;8.814;2022-07-01T03:54:25;9.02;;;1.60;;
66270;SDS011;53063;39.614;8.814;2022-07-01T03:59:30;2.90;;;1.40;;
66270;SDS011;53063;39.614;8.814;2022-07-01T04:01:58;5.30;;;1.75;;
66270;SDS011;53063;39.614;8.814;2022-07-01T04:04:25;7.22;;;1.77;;
66270;SDS011;53063;39.614;8.814;2022-07-01T04:06:55;7.75;;;1.58;;
66270;SDS011;53063;39.614;8.814;2022-07-01T04:09:23;6.93;;;2.17;;
66270;SDS011;53063;39.614;8.814;2022-07-01T04:11:50;7.13;;;1.83;;
66270;SDS011;53063;39.614;8.814;2022-07-01T04:14:17;12.90;;;2.50;;
66270;SDS011;53063;39.614;8.814;2022-07-01T04:16:43;6.53;;;1.63;;
66270;SDS011;53063;39.614;8.814;2022-07-01T04:19:10;6.18;;;1.40;;
66270;SDS011;53063;39.614;8.814;2022-07-01T04:21:38;3.78;;;1.40;;
66270;SDS011;53063;39.614;8.814;2022-07-01T04:24:22;4.45;;;1.33;;
66270;SDS011;53063;39.614;8.814;2022-07-01T04:26:49;6.30;;;1.77;;
66270;SDS011;53063;39.614;8.814;2022-07-01T04:29:16;7.47;;;1.77;;
66270;SDS011;53063;39.614;8.814;2022-07-01T04:31:42;6.95;;;1.30;;
66270;SDS011;53063;39.614;8.814;2022-07-01T04:34:08;8.60;;;1.65;;
66270;SDS011;53063;39.614;8.814;2022-07-01T04:36:35;5.20;;;1.50;;
66270;SDS011;53063;39.614;8.814;2022-07-01T04:39:02;8.52;;;1.70;;
66270;SDS011;53063;39.614;8.814;2022-07-01T04:41:29;9.82;;;1.80;;
66270;SDS011;53063;39.614;8.814;2022-07-01T04:44:13;12.18;;;2.10;;
66270;SDS011;53063;39.614;8.814;2022-07-01T04:46:39;5.38;;;1.33;;
66270;SDS011;53063;39.614;8.814;2022-07-01T04:49:05;7.50;;;1.42;;
66270;SDS011;53063;39.614;8.814;2022-07-01T04:51:32;7.70;;;2.05;;
66270;SDS011;53063;39.614;8.814;2022-07-01T04:54:00;4.45;;;1.50;;
66270;SDS011;53063;39.614;8.814;2022-07-01T04:56:27;6.05;;;1.52;;
66270;SDS011;53063;39.614;8.814;2022-07-01T04:58:56;5.35;;;1.55;;
66270;SDS011;53063;39.614;8.814;2022-07-01T05:01:22;8.32;;;2.10;;
66270;SDS011;53063;39.614;8.814;2022-07-01T05:03:49;11.10;;;2.17;;
66270;SDS011;53063;39.614;8.814;2022-07-01T05:06:15;15.07;;;2.92;;
66270;SDS011;53063;39.614;8.814;2022-07-01T05:08:41;8.20;;;2.30;;
66270;SDS011;53063;39.614;8.814;2022-07-01T05:11:07;7.22;;;1.95;;
66270;SDS011;53063;39.614;8.814;2022-07-01T05:13:33;6.43;;;1.95;;
66270;SDS011;53063;39.614;8.814;2022-07-01T05:15:59;5.85;;;1.85;;
66270;SDS011;53063;39.614;8.814;2022-07-01T05:18:26;14.60;;;3.58;;
66270;SDS011;53063;39.614;8.814;2022-07-01T05:21:10;14.20;;;2.22;;
66270;SDS011;53063;39.614;8.814;2022-07-01T05:23:55;6.95;;;1.60;;
66270;SDS011;53063;39.614;8.814;2022-07-01T05:26:20;11.32;;;1.70;;
66270;SDS011;53063;39.614;8.814;2022-07-01T05:28:47;7.35;;;2.13;;
66270;SDS011;53063;39.614;8.814;2022-07-01T05:31:12;6.80;;;1.88;;
66270;SDS011;53063;39.614;8.814;2022-07-01T05:33:39;7.82;;;1.63;;
66270;SDS011;53063;39.614;8.814;2022-07-01T05:36:05;7.20;;;1.90;;
66270;SDS011;53063;39.614;8.814;2022-07-01T05:38:31;6.68;;;1.42;;
66270;SDS011;53063;39.614;8.814;2022-07-01T05:40:57;5.70;;;1.63;;
66270;SDS011;53063;39.614;8.814;2022-07-01T05:43:23;6.00;;;1.90;;
66270;SDS011;53063;39.614;8.814;2022-07-01T05:45:52;6.80;;;1.70;;
66270;SDS011;53063;39.614;8.814;2022-07-01T05:48:18;7.25;;;1.90;;
66270;SDS011;53063;39.614;8.814;2022-07-01T05:50:44;8.65;;;1.83;;
66270;SDS011;53063;39.614;8.814;2022-07-01T05:53:10;8.52;;;1.70;;
66270;SDS011;53063;39.614;8.814;2022-07-01T05:55:35;9.55;;;1.88;;
66270;SDS011;53063;39.614;8.814;2022-07-01T05:58:01;8.13;;;2.13;;
66270;SDS011;53063;39.614;8.814;2022-07-01T06:00:28;10.38;;;1.98;;
66270;SDS011;53063;39.614;8.814;2022-07-01T06:02:54;7.57;;;1.65;;
66270;SDS011;53063;39.614;8.814;2022-07-01T06:05:20;5.95;;;2.15;;
66270;SDS011;53063;39.614;8.814;2022-07-01T06:07:46;11.00;;;1.60;;
66270;SDS011;53063;39.614;8.814;2022-07-01T06:10:12;6.07;;;1.95;;
66270;SDS011;53063;39.614;8.814;2022-07-01T06:12:38;5.97;;;1.90;;
66270;SDS011;53063;39.614;8.814;2022-07-01T06:15:05;10.30;;;1.95;;
66270;SDS011;53063;39.614;8.814;2022-07-01T06:17:36;9.02;;;2.00;;
66270;SDS011;53063;39.614;8.814;2022-07-01T06:20:03;9.10;;;2.00;;
66270;SDS011;53063;39.614;8.814;2022-07-01T06:22:30;8.63;;;1.98;;
66270;SDS011;53063;39.614;8.814;2022-07-01T06:24:56;6.25;;;2.20;;
66270;SDS011;53063;39.614;8.814;2022-07-01T06:27:22;10.75;;;2.40;;
66270;SDS011;53063;39.614;8.814;2022-07-01T06:29:48;4.47;;;2.30;;
66270;SDS011;53063;39.614;8.814;2022-07-01T06:32:15;8.40;;;1.85;;
66270;SDS011;53063;39.614;8.814;2022-07-01T06:34:41;9.68;;;2.80;;
66270;SDS011;53063;39.614;8.814;2022-07-01T06:37:06;6.90;;;2.00;;
66270;SDS011;53063;39.614;8.814;2022-07-01T06:39:32;8.45;;;1.75;;
66270;SDS011;53063;39.614;8.814;2022-07-01T06:41:58;3.22;;;1.50;;
66270;SDS011;53063;39.614;8.814;2022-07-01T06:44:24;7.70;;;1.95;;
66270;SDS011;53063;39.614;8.814;2022-07-01T06:46:50;15.55;;;2.28;;
66270;SDS011;53063;39.614;8.814;2022-07-01T06:49:16;10.02;;;1.85;;
66270;SDS011;53063;39.614;8.814;2022-07-01T06:51:43;8.07;;;2.63;;
66270;SDS011;53063;39.614;8.814;2022-07-01T06:54:09;10.15;;;2.25;;
66270;SDS011;53063;39.614;8.814;2022-07-01T06:56:35;7.25;;;1.83;;
66270;SDS011;53063;39.614;8.814;2022-07-01T06:59:01;11.93;;;3.22;;
66270;SDS011;53063;39.614;8.814;2022-07-01T07:01:27;6.93;;;2.00;;
66270;SDS011;53063;39.614;8.814;2022-07-01T07:03:54;6.68;;;1.77;;
66270;SDS011;53063;39.614;8.814;2022-07-01T07:06:20;7.72;;;1.90;;
66270;SDS011;53063;39.614;8.814;2022-07-01T07:08:46;7.40;;;1.58;;
66270;SDS011;53063;39.614;8.814;2022-07-01T07:11:12;9.15;;;2.75;;
66270;SDS011;53063;39.614;8.814;2022-07-01T07:13:40;9.45;;;1.92;;
66270;SDS011;53063;39.614;8.814;2022-07-01T07:16:09;7.05;;;2.10;;
66270;SDS011;53063;39.614;8.814;2022-07-01T07:18:35;3.88;;;1.85;;
66270;SDS011;53063;39.614;8.814;2022-07-01T07:21:01;11.95;;;1.83;;
66270;SDS011;53063;39.614;8.814;2022-07-01T07:23:28;5.88;;;1.73;;
66270;SDS011;53063;39.614;8.814;2022-07-01T07:25:54;8.35;;;1.85;;
66270;SDS011;53063;39.614;8.814;2022-07-01T07:28:20;6.45;;;1.52;;
66270;SDS011;53063;39.614;8.814;2022-07-01T07:30:46;10.95;;;1.95;;
66270;SDS011;53063;39.614;8.814;2022-07-01T07:33:12;11.10;;;2.05;;
66270;SDS011;53063;39.614;8.814;2022-07-01T07:35:38;16.85;;;2.40;;
66270;SDS011;53063;39.614;8.814;2022-07-01T07:38:03;10.35;;;2.00;;
66270;SDS011;53063;39.614;8.814;2022-07-01T07:40:29;4.15;;;1.80;;
66270;SDS011;53063;39.614;8.814;2022-07-01T07:42:55;10.77;;;2.22;;
66270;SDS011;53063;39.614;8.814;2022-07-01T07:45:21;6.32;;;1.60;;
66270;SDS011;53063;39.614;8.814;2022-07-01T07:47:47;11.85;;;2.53;;
66270;SDS011;53063;39.614;8.814;2022-07-01T07:50:14;10.10;;;2.13;;
66270;SDS011;53063;39.614;8.814;2022-07-01T07:52:41;8.77;;;2.00;;
66270;SDS011;53063;39.614;8.814;2022-07-01T07:55:08;7.70;;;2.38;;
66270;SDS011;53063;39.614;8.814;2022-07-01T07:57:38;7.43;;;1.95;;
66270;SDS011;53063;39.614;8.814;2022-07-01T08:00:05;13.93;;;2.63;;
66270;SDS011;53063;39.614;8.814;2022-07-01T08:02:39;9.20;;;1.98;;
66270;SDS011;53063;39.614;8.814;2022-07-01T08:05:06;11.55;;;2.10;;
66270;SDS011;53063;39.614;8.814;2022-07-01T08:07:37;14.35;;;2.80;;
66270;SDS011;53063;39.614;8.814;2022-07-01T08:10:07;9.60;;;2.13;;
66270;SDS011;53063;39.614;8.814;2022-07-01T08:15:02;9.35;;;1.85;;
66270;SDS011;53063;39.614;8.814;2022-07-01T08:17:28;8.73;;;2.38;;
66270;SDS011;53063;39.614;8.814;2022-07-01T08:19:54;10.45;;;2.47;;
66270;SDS011;53063;39.614;8.814;2022-07-01T08:22:20;11.27;;;2.10;;
66270;SDS011;53063;39.614;8.814;2022-07-01T08:24:45;8.90;;;1.88;;
66270;SDS011;53063;39.614;8.814;2022-07-01T08:27:11;9.60;;;2.47;;
66270;SDS011;53063;39.614;8.814;2022-07-01T08:29:38;7.72;;;2.10;;
66270;SDS011;53063;39.614;8.814;2022-07-01T08:32:04;4.72;;;1.70;;
66270;SDS011;53063;39.614;8.814;2022-07-01T08:34:31;9.80;;;2.33;;
66270;SDS011;53063;39.614;8.814;2022-07-01T08:36:57;14.73;;;2.33;;
66270;SDS011;53063;39.614;8.814;2022-07-01T08:39:23;10.50;;;1.85;;
66270;SDS011;53063;39.614;8.814;2022-07-01T08:41:48;8.77;;;2.17;;
66270;SDS011;53063;39.614;8.814;2022-07-01T08:44:14;11.30;;;1.92;;
66270;SDS011;53063;39.614;8.814;2022-07-01T08:46:41;13.15;;;2.28;;
66270;SDS011;53063;39.614;8.814;2022-07-01T08:49:06;9.48;;;2.28;;
66270;SDS011;53063;39.614;8.814;2022-07-01T08:51:32;11.45;;;2.50;;
66270;SDS011;53063;39.614;8.814;2022-07-01T08:53:58;8.52;;;2.22;;
66270;SDS011;53063;39.614;8.814;2022-07-01T08:56:24;8.70;;;1.63;;
66270;SDS011;53063;39.614;8.814;2022-07-01T08:59:06;8.32;;;2.15;;
66270;SDS011;53063;39.614;8.814;2022-07-01T09:01:36;9.80;;;1.92;;
66270;SDS011;53063;39.614;8.814;2022-07-01T09:04:20;5.75;;;1.80;;
66270;SDS011;53063;39.614;8.814;2022-07-01T09:06:47;9.88;;;1.98;;
66270;SDS011;53063;39.614;8.814;2022-07-01T09:09:17;4.82;;;2.45;;
66270;SDS011;53063;39.614;8.814;2022-07-01T09:16:47;8.32;;;2.42;;
66270;SDS011;53063;39.614;8.814;2022-07-01T09:19:15;10.90;;;2.75;;
66270;SDS011;53063;39.614;8.814;2022-07-01T09:21:42;6.80;;;2.20;;
66270;SDS011;53063;39.614;8.814;2022-07-01T09:24:23;8.50;;;2.03;;
66270;SDS011;53063;39.614;8.814;2022-07-01T09:27:07;9.13;;;2.45;;
66270;SDS011;53063;39.614;8.814;2022-07-01T09:29:42;9.02;;;2.20;;
66270;SDS011;53063;39.614;8.814;2022-07-01T09:32:10;12.00;;;2.35;;
66270;SDS011;53063;39.614;8.814;2022-07-01T09:34:47;10.65;;;2.25;;
66270;SDS011;53063;39.614;8.814;2022-07-01T09:37:20;11.57;;;2.72;;
66270;SDS011;53063;39.614;8.814;2022-07-01T09:39:48;10.00;;;2.35;;
66270;SDS011;53063;39.614;8.814;2022-07-01T09:42:17;10.85;;;1.90;;
66270;SDS011;53063;39.614;8.814;2022-07-01T09:47:47;11.20;;;2.53;;
66270;SDS011;53063;39.614;8.814;2022-07-01T09:50:13;9.32;;;2.20;;
66270;SDS011;53063;39.614;8.814;2022-07-01T09:52:39;5.07;;;2.22;;
66270;SDS011;53063;39.614;8.814;2022-07-01T09:55:06;11.32;;;2.40;;
66270;SDS011;53063;39.614;8.814;2022-07-01T09:57:33;14.77;;;2.67;;
66270;SDS011;53063;39.614;8.814;2022-07-01T09:59:59;8.18;;;2.70;;
66270;SDS011;53063;39.614;8.814;2022-07-01T10:02:25;11.95;;;2.90;;
66270;SDS011;53063;39.614;8.814;2022-07-01T10:05:00;8.30;;;2.20;;
66270;SDS011;53063;39.614;8.814;2022-07-01T10:07:39;10.90;;;3.15;;
66270;SDS011;53063;39.614;8.814;2022-07-01T10:13:26;10.02;;;2.50;;
66270;SDS011;53063;39.614;8.814;2022-07-01T10:15:56;11.55;;;2.72;;
66270;SDS011;53063;39.614;8.814;2022-07-01T10:18:24;14.85;;;3.40;;
66270;SDS011;53063;39.614;8.814;2022-07-01T10:20:51;21.17;;;4.72;;
66270;SDS011;53063;39.614;8.814;2022-07-01T10:23:19;19.10;;;3.38;;
66270;SDS011;53063;39.614;8.814;2022-07-01T10:25:47;11.77;;;2.80;;
66270;SDS011;53063;39.614;8.814;2022-07-01T10:28:21;10.52;;;3.03;;
66270;SDS011;53063;39.614;8.814;2022-07-01T10:30:53;13.48;;;3.05;;
66270;SDS011;53063;39.614;8.814;2022-07-01T10:33:43;13.80;;;2.70;;
66270;SDS011;53063;39.614;8.814;2022-07-01T10:41:29;14.23;;;2.85;;
66270;SDS011;53063;39.614;8.814;2022-07-01T10:43:57;9.68;;;2.10;;
66270;SDS011;53063;39.614;8.814;2022-07-01T10:46:42;17.83;;;3.30;;
66270;SDS011;53063;39.614;8.814;2022-07-01T10:52:06;10.23;;;2.63;;
66270;SDS011;53063;39.614;8.814;2022-07-01T10:59:42;12.60;;;2.70;;
66270;SDS011;53063;39.614;8.814;2022-07-01T11:02:14;6.15;;;2.20;;
66270;SDS011;53063;39.614;8.814;2022-07-01T11:04:43;5.70;;;2.20;;
66270;SDS011;53063;39.614;8.814;2022-07-01T11:07:10;7.25;;;2.50;;
66270;SDS011;53063;39.614;8.814;2022-07-01T11:09:36;15.60;;;2.30;;
66270;SDS011;53063;39.614;8.814;2022-07-01T11:12:03;11.73;;;2.88;;
66270;SDS011;53063;39.614;8.814;2022-07-01T11:14:33;9.10;;;2.40;;
66270;SDS011;53063;39.614;8.814;2022-07-01T11:17:00;10.45;;;2.70;;
66270;SDS011;53063;39.614;8.814;2022-07-01T11:19:27;14.88;;;2.60;;
66270;SDS011;53063;39.614;8.814;2022-07-01T11:21:53;10.30;;;2.75;;
66270;SDS011;53063;39.614;8.814;2022-07-01T11:24:20;18.70;;;3.10;;
66270;SDS011;53063;39.614;8.814;2022-07-01T11:26:48;13.65;;;2.63;;
66270;SDS011;53063;39.614;8.814;2022-07-01T11:29:14;11.60;;;3.03;;
66270;SDS011;53063;39.614;8.814;2022-07-01T11:31:49;10.80;;;2.60;;
66270;SDS011;53063;39.614;8.814;2022-07-01T11:34:15;11.60;;;2.60;;
66270;SDS011;53063;39.614;8.814;2022-07-01T11:36:43;10.50;;;2.42;;
66270;SDS011;53063;39.614;8.814;2022-07-01T11:39:28;11.50;;;2.58;;
66270;SDS011;53063;39.614;8.814;2022-07-01T11:42:05;18.40;;;2.53;;
66270;SDS011;53063;39.614;8.814;2022-07-01T11:44:42;9.18;;;2.88;;
66270;SDS011;53063;39.614;8.814;2022-07-01T11:47:10;14.65;;;2.85;;
66270;SDS011;53063;39.614;8.814;2022-07-01T11:49:47;10.07;;;2.45;;
66270;SDS011;53063;39.614;8.814;2022-07-01T11:52:14;14.25;;;2.78;;
66270;SDS011;53063;39.614;8.814;2022-07-01T11:54:45;12.63;;;2.70;;
66270;SDS011;53063;39.614;8.814;2022-07-01T11:57:16;13.70;;;2.38;;
66270;SDS011;53063;39.614;8.814;2022-07-01T11:59:47;9.10;;;2.45;;
66270;SDS011;53063;39.614;8.814;2022-07-01T12:02:15;12.65;;;3.28;;
66270;SDS011;53063;39.614;8.814;2022-07-01T12:04:44;11.95;;;2.95;;
66270;SDS011;53063;39.614;8.814;2022-07-01T12:07:11;18.85;;;3.33;;
66270;SDS011;53063;39.614;8.814;2022-07-01T12:09:38;15.93;;;3.38;;
66270;SDS011;53063;39.614;8.814;2022-07-01T12:12:05;19.85;;;3.83;;
66270;SDS011;53063;39.614;8.814;2022-07-01T12:14:33;17.95;;;3.47;;
66270;SDS011;53063;39.614;8.814;2022-07-01T12:17:00;18.50;;;3.50;;
66270;SDS011;53063;39.614;8.814;2022-07-01T12:19:38;14.88;;;3.10;;
66270;SDS011;53063;39.614;8.814;2022-07-01T12:22:07;11.60;;;2.88;;
66270;SDS011;53063;39.614;8.814;2022-07-01T12:24:34;18.25;;;2.95;;
66270;SDS011;53063;39.614;8.814;2022-07-01T12:29:47;16.25;;;3.53;;
66270;SDS011;53063;39.614;8.814;2022-07-01T12:32:17;12.77;;;2.80;;
66270;SDS011;53063;39.614;8.814;2022-07-01T12:34:52;9.77;;;2.58;;
66270;SDS011;53063;39.614;8.814;2022-07-01T12:37:51;19.48;;;3.22;;
66270;SDS011;53063;39.614;8.814;2022-07-01T12:40:20;12.23;;;2.83;;
66270;SDS011;53063;39.614;8.814;2022-07-01T12:42:48;14.10;;;2.78;;
66270;SDS011;53063;39.614;8.814;2022-07-01T12:45:15;8.32;;;2.38;;
66270;SDS011;53063;39.614;8.814;2022-07-01T12:47:42;10.45;;;2.53;;
66270;SDS011;53063;39.614;8.814;2022-07-01T12:50:22;12.43;;;2.80;;
66270;SDS011;53063;39.614;8.814;2022-07-01T12:53:01;13.70;;;3.47;;
66270;SDS011;53063;39.614;8.814;2022-07-01T12:55:30;7.68;;;2.05;;
66270;SDS011;53063;39.614;8.814;2022-07-01T12:57:58;11.90;;;1.83;;
66270;SDS011;53063;39.614;8.814;2022-07-01T13:00:25;10.55;;;2.53;;
66270;SDS011;53063;39.614;8.814;2022-07-01T13:02:53;11.23;;;2.50;;
66270;SDS011;53063;39.614;8.814;2022-07-01T13:05:22;7.97;;;2.67;;
66270;SDS011;53063;39.614;8.814;2022-07-01T13:07:49;10.23;;;2.63;;
66270;SDS011;53063;39.614;8.814;2022-07-01T13:10:15;11.93;;;2.35;;
66270;SDS011;53063;39.614;8.814;2022-07-01T13:12:42;11.07;;;2.00;;
66270;SDS011;53063;39.614;8.814;2022-07-01T13:15:13;12.48;;;2.90;;
66270;SDS011;53063;39.614;8.814;2022-07-01T13:17:40;14.93;;;3.08;;
66270;SDS011;53063;39.614;8.814;2022-07-01T13:20:06;12.43;;;2.63;;
66270;SDS011;53063;39.614;8.814;2022-07-01T13:22:33;16.08;;;2.45;;
66270;SDS011;53063;39.614;8.814;2022-07-01T13:25:00;12.63;;;2.33;;
66270;SDS011;53063;39.614;8.814;2022-07-01T13:27:26;13.18;;;2.60;;
66270;SDS011;53063;39.614;8.814;2022-07-01T13:29:53;10.18;;;2.90;;
66270;SDS011;53063;39.614;8.814;2022-07-01T13:32:18;8.48;;;2.88;;
66270;SDS011;53063;39.614;8.814;2022-07-01T13:34:44;12.73;;;2.80;;
66270;SDS011;53063;39.614;8.814;2022-07-01T13:37:11;14.85;;;3.28;;
66270;SDS011;53063;39.614;8.814;2022-07-01T13:39:37;13.13;;;2.80;;
66270;SDS011;53063;39.614;8.814;2022-07-01T13:42:03;15.95;;;2.47;;
66270;SDS011;53063;39.614;8.814;2022-07-01T13:44:29;13.57;;;2.58;;
66270;SDS011;53063;39.614;8.814;2022-07-01T13:46:55;20.00;;;3.60;;
66270;SDS011;53063;39.614;8.814;2022-07-01T13:49:21;12.38;;;2.65;;
66270;SDS011;53063;39.614;8.814;2022-07-01T13:51:47;13.27;;;2.28;;
66270;SDS011;53063;39.614;8.814;2022-07-01T13:54:13;9.00;;;2.25;;
66270;SDS011;53063;39.614;8.814;2022-07-01T13:56:39;8.73;;;2.65;;
66270;SDS011;53063;39.614;8.814;2022-07-01T13:59:05;10.40;;;2.90;;
66270;SDS011;53063;39.614;8.814;2022-07-01T14:01:31;12.35;;;2.70;;
66270;SDS011;53063;39.614;8.814;2022-07-01T14:04:00;17.30;;;3.45;;
66270;SDS011;53063;39.614;8.814;2022-07-01T14:06:26;6.82;;;2.22;;
66270;SDS011;53063;39.614;8.814;2022-07-01T14:08:52;12.02;;;3.03;;
66270;SDS011;53063;39.614;8.814;2022-07-01T14:11:18;19.92;;;2.85;;
66270;SDS011;53063;39.614;8.814;2022-07-01T14:13:47;20.45;;;3.25;;
66270;SDS011;53063;39.614;8.814;2022-07-01T14:16:13;14.02;;;2.60;;
66270;SDS011;53063;39.614;8.814;2022-07-01T14:18:39;9.02;;;2.38;;
66270;SDS011;53063;39.614;8.814;2022-07-01T14:21:05;6.75;;;2.28;;
66270;SDS011;53063;39.614;8.814;2022-07-01T14:23:32;10.82;;;2.08;;
66270;SDS011;53063;39.614;8.814;2022-07-01T14:25:58;12.15;;;2.67;;
66270;SDS011;53063;39.614;8.814;2022-07-01T14:28:25;10.13;;;2.95;;
66270;SDS011;53063;39.614;8.814;2022-07-01T14:30:51;6.35;;;2.50;;
66270;SDS011;53063;39.614;8.814;2022-07-01T14:33:17;13.07;;;2.60;;
66270;SDS011;53063;39.614;8.814;2022-07-01T14:35:43;8.52;;;2.38;;
66270;SDS011;53063;39.614;8.814;2022-07-01T14:38:09;6.80;;;2.13;;
66270;SDS011;53063;39.614;8.814;2022-07-01T14:40:35;8.63;;;2.17;;
66270;SDS011;53063;39.614;8.814;2022-07-01T14:43:02;7.45;;;2.33;;
66270;SDS011;53063;39.614;8.814;2022-07-01T14:45:31;7.20;;;2.10;;
66270;SDS011;53063;39.614;8.814;2022-07-01T14:47:57;7.68;;;2.10;;
66270;SDS011;53063;39.614;8.814;2022-07-01T14:50:23;7.95;;;1.92;;
66270;SDS011;53063;39.614;8.814;2022-07-01T14:52:49;5.93;;;1.90;;
66270;SDS011;53063;39.614;8.814;2022-07-01T14:55:15;5.82;;;2.60;;
66270;SDS011;53063;39.614;8.814;2022-07-01T14:57:41;9.48;;;2.30;;
66270;SDS011;53063;39.614;8.814;2022-07-01T15:00:07;7.60;;;2.28;;
66270;SDS011;53063;39.614;8.814;2022-07-01T15:02:34;7.95;;;2.30;;
66270;SDS011;53063;39.614;8.814;2022-07-01T15:05:01;10.93;;;2.13;;
66270;SDS011;53063;39.614;8.814;2022-07-01T15:07:27;11.60;;;2.33;;
66270;SDS011;53063;39.614;8.814;2022-07-01T15:09:54;8.00;;;2.20;;
66270;SDS011;53063;39.614;8.814;2022-07-01T15:12:26;14.13;;;2.45;;
66270;SDS011;53063;39.614;8.814;2022-07-01T15:14:53;9.38;;;2.42;;
66270;SDS011;53063;39.614;8.814;2022-07-01T15:17:19;5.80;;;2.08;;
66270;SDS011;53063;39.614;8.814;2022-07-01T15:19:45;7.45;;;2.17;;